Pointblank, TX

10:20 AM CST del 22 novembre 2014 (GMT -0600)
KTXOAKHU2 | Change Station
CLOSE
Current Station
Stazione meteo personale
Location: Oakhurst, TX
Altitudine: 181 ft
Stazioni meteo nelle vicinanze

Alt. 181 ft 30.83 °N, 95.33 °W | Updated 5 seconds ago

Sereno
Sereno
61.6 °F
Sembra 61.6 °F
N
2.0
Vento Variabile Vento da ENE
Gusts 8.0 mph

Oggi
Massima -- | Minima -- °F
--% Possibilità di precip.
Ieri
Massima -- | Minima -- °F
Precip. -- in
6:53 AM 5:20 PM
Luna nuova, 0% visible
Pressione 30.06 in
Visibilità 10.0 miglia
Nuvole Alcuni 9500 ft
Punto di rugiada 59 °F
Umidità 92%
Piovosità 0.00 in
Spessore del manto nevoso Non disponibile.
Raggi UV 3 fuori da 12
Polline .80 fuori da 12
Qualità dell'aria Non disponibile.
Flu Activity Non disponibile.
METAR KUTS 221553Z AUTO VRB04KT 10SM FEW095 17/14 A3006 RMK AO2 SLP177 T01720139

More Conditions Fewer Conditions

Pressione 30.06 in
Visibilità 10.0 miglia
Nuvole Alcuni 9500 ft
Punto di rugiada 59 °F
Umidità 92%
Piovosità 0.00 in
Spessore del manto nevoso Non disponibile.
Raggi UV 3 fuori da 12
Polline .80 fuori da 12
Qualità dell'aria Non disponibile.
Flu Activity Non disponibile.
METAR KUTS 221553Z AUTO VRB04KT 10SM FEW095 17/14 A3006 RMK AO2 SLP177 T01720139

More Conditions Fewer Conditions

10-Day Weather Forecast

Almanac

Astronomia

Nov. 22, 2014 Alba Tramonto
Ora attuale
Crepuscolo civile
Crepuscolo nautico
Crepuscolo astronomico
Luna
Estensione della luce visibile
Lunghezza del giorno
Tomorrow will be .
, % of the Moon is Illuminated

Gli estremi di oggi

State Highs State Lows

Community

WunderPhotos

Upload Photos

1,772,843 foto caricate!

WunderBlogs® & News

Nearby

Qualità dell'aria

  Qualità dell'aria Indice AQ Inquinante
Not available.

Profondità neve

Stazione Profondità Altitudine

Attività sismica

Città  Distanza Mag. Data & Ora
Minimo Magnitudo Mostrato è 2.5.

Temperature delle acque costiere

Località Temperatura

Stazioni meteo nelle vicinanze